sensor_id;sensor_type;location;lat;lon;timestamp;temperature;humidity
16347;DHT22;8283;48.504;13.734;2023-09-18T00:01:01;20.30;78.70
16347;DHT22;8283;48.504;13.734;2023-09-18T00:03:46;20.30;78.50
16347;DHT22;8283;48.504;13.734;2023-09-18T00:06:30;20.30;78.60
16347;DHT22;8283;48.504;13.734;2023-09-18T00:09:15;20.30;78.60
16347;DHT22;8283;48.504;13.734;2023-09-18T00:12:00;20.30;78.70
16347;DHT22;8283;48.504;13.734;2023-09-18T00:14:48;20.30;78.90
16347;DHT22;8283;48.504;13.734;2023-09-18T00:17:33;20.20;79.60
16347;DHT22;8283;48.504;13.734;2023-09-18T00:20:18;20.20;78.90
16347;DHT22;8283;48.504;13.734;2023-09-18T00:23:03;20.20;79.00
16347;DHT22;8283;48.504;13.734;2023-09-18T00:25:47;20.20;79.00
16347;DHT22;8283;48.504;13.734;2023-09-18T00:28:31;20.20;79.10
16347;DHT22;8283;48.504;13.734;2023-09-18T00:31:16;20.20;79.20
16347;DHT22;8283;48.504;13.734;2023-09-18T00:34:01;20.10;79.20
16347;DHT22;8283;48.504;13.734;2023-09-18T00:36:45;20.10;79.40
16347;DHT22;8283;48.504;13.734;2023-09-18T00:39:29;20.10;79.40
16347;DHT22;8283;48.504;13.734;2023-09-18T00:42:15;20.10;79.50
16347;DHT22;8283;48.504;13.734;2023-09-18T00:45:02;20.10;79.60
16347;DHT22;8283;48.504;13.734;2023-09-18T00:47:46;20.10;79.70
16347;DHT22;8283;48.504;13.734;2023-09-18T00:50:31;20.10;79.80
16347;DHT22;8283;48.504;13.734;2023-09-18T00:53:18;20.00;80.10
16347;DHT22;8283;48.504;13.734;2023-09-18T00:56:03;20.00;80.40
16347;DHT22;8283;48.504;13.734;2023-09-18T00:58:48;20.00;80.10
16347;DHT22;8283;48.504;13.734;2023-09-18T01:01:33;19.90;79.90
16347;DHT22;8283;48.504;13.734;2023-09-18T01:04:17;20.00;80.10
16347;DHT22;8283;48.504;13.734;2023-09-18T01:07:03;20.00;80.20
16347;DHT22;8283;48.504;13.734;2023-09-18T01:09:48;19.90;80.20
16347;DHT22;8283;48.504;13.734;2023-09-18T01:13:02;19.90;80.30
16347;DHT22;8283;48.504;13.734;2023-09-18T01:15:54;19.90;83.40
16347;DHT22;8283;48.504;13.734;2023-09-18T01:18:49;19.80;81.70
16347;DHT22;8283;48.504;13.734;2023-09-18T01:21:34;19.80;82.30
16347;DHT22;8283;48.504;13.734;2023-09-18T01:24:18;19.70;80.80
16347;DHT22;8283;48.504;13.734;2023-09-18T01:27:04;19.70;80.90
16347;DHT22;8283;48.504;13.734;2023-09-18T01:29:48;19.70;81.40
16347;DHT22;8283;48.504;13.734;2023-09-18T01:32:35;19.70;81.30
16347;DHT22;8283;48.504;13.734;2023-09-18T01:35:21;19.70;81.80
16347;DHT22;8283;48.504;13.734;2023-09-18T01:38:07;19.70;81.60
16347;DHT22;8283;48.504;13.734;2023-09-18T01:40:56;19.70;81.50
16347;DHT22;8283;48.504;13.734;2023-09-18T01:43:43;19.70;81.60
16347;DHT22;8283;48.504;13.734;2023-09-18T01:46:28;19.60;81.60
16347;DHT22;8283;48.504;13.734;2023-09-18T01:49:12;19.60;81.70
16347;DHT22;8283;48.504;13.734;2023-09-18T01:51:57;19.60;81.90
16347;DHT22;8283;48.504;13.734;2023-09-18T01:54:41;19.60;82.10
16347;DHT22;8283;48.504;13.734;2023-09-18T01:57:26;19.60;82.10
16347;DHT22;8283;48.504;13.734;2023-09-18T02:00:11;19.60;82.20
16347;DHT22;8283;48.504;13.734;2023-09-18T02:02:59;19.60;82.30
16347;DHT22;8283;48.504;13.734;2023-09-18T02:05:43;19.50;82.30
16347;DHT22;8283;48.504;13.734;2023-09-18T02:08:28;19.50;82.40
16347;DHT22;8283;48.504;13.734;2023-09-18T02:11:12;19.50;82.50
16347;DHT22;8283;48.504;13.734;2023-09-18T02:13:57;19.50;82.60
16347;DHT22;8283;48.504;13.734;2023-09-18T02:16:42;19.50;82.60
16347;DHT22;8283;48.504;13.734;2023-09-18T02:19:30;19.50;82.80
16347;DHT22;8283;48.504;13.734;2023-09-18T02:22:14;19.50;82.70
16347;DHT22;8283;48.504;13.734;2023-09-18T02:25:00;19.50;82.70
16347;DHT22;8283;48.504;13.734;2023-09-18T02:27:45;19.50;82.70
16347;DHT22;8283;48.504;13.734;2023-09-18T02:30:29;19.50;82.70
16347;DHT22;8283;48.504;13.734;2023-09-18T02:33:14;19.50;82.60
16347;DHT22;8283;48.504;13.734;2023-09-18T02:35:58;19.50;82.60
16347;DHT22;8283;48.504;13.734;2023-09-18T02:38:43;19.50;82.60
16347;DHT22;8283;48.504;13.734;2023-09-18T02:41:27;19.40;82.70
16347;DHT22;8283;48.504;13.734;2023-09-18T02:44:12;19.40;82.80
16347;DHT22;8283;48.504;13.734;2023-09-18T02:46:56;19.40;82.90
16347;DHT22;8283;48.504;13.734;2023-09-18T02:49:41;19.40;83.00
16347;DHT22;8283;48.504;13.734;2023-09-18T02:52:26;19.40;83.10
16347;DHT22;8283;48.504;13.734;2023-09-18T02:55:10;19.40;83.20
16347;DHT22;8283;48.504;13.734;2023-09-18T02:57:55;19.30;83.10
16347;DHT22;8283;48.504;13.734;2023-09-18T03:00:47;19.30;83.20
16347;DHT22;8283;48.504;13.734;2023-09-18T03:03:33;19.30;84.80
16347;DHT22;8283;48.504;13.734;2023-09-18T03:06:18;19.30;83.90
16347;DHT22;8283;48.504;13.734;2023-09-18T03:09:02;19.30;83.50
16347;DHT22;8283;48.504;13.734;2023-09-18T03:11:47;19.30;83.60
16347;DHT22;8283;48.504;13.734;2023-09-18T03:14:31;19.20;83.50
16347;DHT22;8283;48.504;13.734;2023-09-18T03:17:16;19.20;83.50
16347;DHT22;8283;48.504;13.734;2023-09-18T03:20:00;19.20;83.60
16347;DHT22;8283;48.504;13.734;2023-09-18T03:22:44;19.20;83.60
16347;DHT22;8283;48.504;13.734;2023-09-18T03:25:29;19.20;83.80
16347;DHT22;8283;48.504;13.734;2023-09-18T03:28:13;19.10;83.80
16347;DHT22;8283;48.504;13.734;2023-09-18T03:30:58;19.10;84.00
16347;DHT22;8283;48.504;13.734;2023-09-18T03:33:43;19.10;84.10
16347;DHT22;8283;48.504;13.734;2023-09-18T03:36:28;19.10;84.10
16347;DHT22;8283;48.504;13.734;2023-09-18T03:39:12;19.10;84.20
16347;DHT22;8283;48.504;13.734;2023-09-18T03:41:57;19.00;84.20
16347;DHT22;8283;48.504;13.734;2023-09-18T03:44:42;19.10;84.30
16347;DHT22;8283;48.504;13.734;2023-09-18T03:47:26;19.00;85.00
16347;DHT22;8283;48.504;13.734;2023-09-18T03:50:11;19.00;84.30
16347;DHT22;8283;48.504;13.734;2023-09-18T03:52:56;19.00;84.60
16347;DHT22;8283;48.504;13.734;2023-09-18T03:55:40;19.00;84.30
16347;DHT22;8283;48.504;13.734;2023-09-18T03:58:24;19.00;84.30
16347;DHT22;8283;48.504;13.734;2023-09-18T04:01:09;19.00;84.30
16347;DHT22;8283;48.504;13.734;2023-09-18T04:03:54;19.00;84.40
16347;DHT22;8283;48.504;13.734;2023-09-18T04:06:41;19.00;84.40
16347;DHT22;8283;48.504;13.734;2023-09-18T04:09:26;18.90;84.80
16347;DHT22;8283;48.504;13.734;2023-09-18T04:12:11;18.90;84.30
16347;DHT22;8283;48.504;13.734;2023-09-18T04:14:55;18.90;84.30
16347;DHT22;8283;48.504;13.734;2023-09-18T04:17:40;18.90;84.50
16347;DHT22;8283;48.504;13.734;2023-09-18T04:20:25;18.90;84.50
16347;DHT22;8283;48.504;13.734;2023-09-18T04:23:24;18.90;84.50
16347;DHT22;8283;48.504;13.734;2023-09-18T04:26:10;18.90;86.10
16347;DHT22;8283;48.504;13.734;2023-09-18T04:28:57;18.80;84.30
16347;DHT22;8283;48.504;13.734;2023-09-18T04:31:41;18.80;84.30
16347;DHT22;8283;48.504;13.734;2023-09-18T04:34:26;18.80;84.30
16347;DHT22;8283;48.504;13.734;2023-09-18T04:37:10;18.80;84.30
16347;DHT22;8283;48.504;13.734;2023-09-18T04:39:55;18.80;84.40
16347;DHT22;8283;48.504;13.734;2023-09-18T04:42:39;18.80;84.50
16347;DHT22;8283;48.504;13.734;2023-09-18T04:45:25;18.80;84.60
16347;DHT22;8283;48.504;13.734;2023-09-18T04:48:10;18.70;84.80
16347;DHT22;8283;48.504;13.734;2023-09-18T04:50:55;18.70;84.70
16347;DHT22;8283;48.504;13.734;2023-09-18T04:53:40;18.70;84.80
16347;DHT22;8283;48.504;13.734;2023-09-18T04:56:25;18.70;84.90
16347;DHT22;8283;48.504;13.734;2023-09-18T04:59:11;18.70;85.00
16347;DHT22;8283;48.504;13.734;2023-09-18T05:01:55;18.60;85.10
16347;DHT22;8283;48.504;13.734;2023-09-18T05:04:39;18.60;85.30
16347;DHT22;8283;48.504;13.734;2023-09-18T05:07:24;18.60;85.50
16347;DHT22;8283;48.504;13.734;2023-09-18T05:10:09;18.70;85.70
16347;DHT22;8283;48.504;13.734;2023-09-18T05:12:53;18.60;85.80
16347;DHT22;8283;48.504;13.734;2023-09-18T05:15:42;18.60;85.80
16347;DHT22;8283;48.504;13.734;2023-09-18T05:18:26;18.60;85.80
16347;DHT22;8283;48.504;13.734;2023-09-18T05:21:11;18.70;86.00
16347;DHT22;8283;48.504;13.734;2023-09-18T05:23:55;18.70;86.10
16347;DHT22;8283;48.504;13.734;2023-09-18T05:26:39;18.70;86.10
16347;DHT22;8283;48.504;13.734;2023-09-18T05:29:24;18.70;86.10
16347;DHT22;8283;48.504;13.734;2023-09-18T05:32:08;18.70;86.20
16347;DHT22;8283;48.504;13.734;2023-09-18T05:34:52;18.70;86.20
16347;DHT22;8283;48.504;13.734;2023-09-18T05:37:37;18.70;86.30
16347;DHT22;8283;48.504;13.734;2023-09-18T05:40:21;18.70;86.50
16347;DHT22;8283;48.504;13.734;2023-09-18T05:43:06;19.00;86.70
16347;DHT22;8283;48.504;13.734;2023-09-18T05:45:51;18.70;86.50
16347;DHT22;8283;48.504;13.734;2023-09-18T05:48:36;18.70;86.60
16347;DHT22;8283;48.504;13.734;2023-09-18T05:51:20;18.70;86.70
16347;DHT22;8283;48.504;13.734;2023-09-18T05:54:05;18.70;86.80
16347;DHT22;8283;48.504;13.734;2023-09-18T05:56:49;18.70;86.90
16347;DHT22;8283;48.504;13.734;2023-09-18T05:59:33;18.70;87.10
16347;DHT22;8283;48.504;13.734;2023-09-18T06:02:18;18.80;87.10
16347;DHT22;8283;48.504;13.734;2023-09-18T06:05:02;18.80;87.20
16347;DHT22;8283;48.504;13.734;2023-09-18T06:07:48;18.80;87.00
16347;DHT22;8283;48.504;13.734;2023-09-18T06:10:33;18.80;87.30
16347;DHT22;8283;48.504;13.734;2023-09-18T06:13:18;18.80;87.10
16347;DHT22;8283;48.504;13.734;2023-09-18T06:16:05;18.90;87.10
16347;DHT22;8283;48.504;13.734;2023-09-18T06:18:52;18.90;87.80
16347;DHT22;8283;48.504;13.734;2023-09-18T06:21:36;18.90;87.60
16347;DHT22;8283;48.504;13.734;2023-09-18T06:24:21;19.00;88.30
16347;DHT22;8283;48.504;13.734;2023-09-18T06:27:06;19.10;89.00
16347;DHT22;8283;48.504;13.734;2023-09-18T06:29:50;19.20;89.40
16347;DHT22;8283;48.504;13.734;2023-09-18T06:32:35;19.30;89.70
16347;DHT22;8283;48.504;13.734;2023-09-18T06:35:21;19.50;90.00
16347;DHT22;8283;48.504;13.734;2023-09-18T06:38:05;19.70;90.10
16347;DHT22;8283;48.504;13.734;2023-09-18T06:40:50;19.90;90.10
16347;DHT22;8283;48.504;13.734;2023-09-18T06:43:35;20.00;90.10
16347;DHT22;8283;48.504;13.734;2023-09-18T06:46:19;20.30;90.10
16347;DHT22;8283;48.504;13.734;2023-09-18T06:49:04;20.50;90.00
16347;DHT22;8283;48.504;13.734;2023-09-18T06:51:49;20.60;89.60
16347;DHT22;8283;48.504;13.734;2023-09-18T06:54:33;20.80;89.30
16347;DHT22;8283;48.504;13.734;2023-09-18T06:57:18;21.00;89.10
16347;DHT22;8283;48.504;13.734;2023-09-18T07:00:02;21.20;89.00
16347;DHT22;8283;48.504;13.734;2023-09-18T07:02:49;21.40;89.10
16347;DHT22;8283;48.504;13.734;2023-09-18T07:05:34;21.60;89.10
16347;DHT22;8283;48.504;13.734;2023-09-18T07:08:18;21.80;89.10
16347;DHT22;8283;48.504;13.734;2023-09-18T07:11:06;22.10;89.00
16347;DHT22;8283;48.504;13.734;2023-09-18T07:13:51;22.20;88.30
16347;DHT22;8283;48.504;13.734;2023-09-18T07:16:35;22.40;87.20
16347;DHT22;8283;48.504;13.734;2023-09-18T07:19:20;22.50;86.70
16347;DHT22;8283;48.504;13.734;2023-09-18T07:22:04;22.70;86.40
16347;DHT22;8283;48.504;13.734;2023-09-18T07:24:48;22.80;86.20
16347;DHT22;8283;48.504;13.734;2023-09-18T07:27:33;22.90;85.80
16347;DHT22;8283;48.504;13.734;2023-09-18T07:30:17;23.00;86.10
16347;DHT22;8283;48.504;13.734;2023-09-18T07:33:03;23.20;86.40
16347;DHT22;8283;48.504;13.734;2023-09-18T07:35:49;23.40;86.60
16347;DHT22;8283;48.504;13.734;2023-09-18T07:38:36;23.60;86.60
16347;DHT22;8283;48.504;13.734;2023-09-18T07:41:22;23.90;85.90
16347;DHT22;8283;48.504;13.734;2023-09-18T07:44:06;24.10;85.20
16347;DHT22;8283;48.504;13.734;2023-09-18T07:46:50;24.30;84.80
16347;DHT22;8283;48.504;13.734;2023-09-18T07:49:35;24.50;84.10
16347;DHT22;8283;48.504;13.734;2023-09-18T07:52:19;24.60;83.20
16347;DHT22;8283;48.504;13.734;2023-09-18T07:55:03;24.80;82.60
16347;DHT22;8283;48.504;13.734;2023-09-18T07:57:48;24.80;81.90
16347;DHT22;8283;48.504;13.734;2023-09-18T08:00:33;24.90;81.50
16347;DHT22;8283;48.504;13.734;2023-09-18T08:03:17;24.90;80.90
16347;DHT22;8283;48.504;13.734;2023-09-18T08:06:01;25.00;80.60
16347;DHT22;8283;48.504;13.734;2023-09-18T08:08:48;25.00;80.30
16347;DHT22;8283;48.504;13.734;2023-09-18T08:11:32;25.00;80.20
16347;DHT22;8283;48.504;13.734;2023-09-18T08:14:17;25.00;80.10
16347;DHT22;8283;48.504;13.734;2023-09-18T08:17:01;25.10;80.10
16347;DHT22;8283;48.504;13.734;2023-09-18T08:19:50;25.10;80.30
16347;DHT22;8283;48.504;13.734;2023-09-18T08:22:36;25.20;80.00
16347;DHT22;8283;48.504;13.734;2023-09-18T08:25:21;25.40;80.90
16347;DHT22;8283;48.504;13.734;2023-09-18T08:28:06;25.50;81.30
16347;DHT22;8283;48.504;13.734;2023-09-18T08:30:50;25.70;81.50
16347;DHT22;8283;48.504;13.734;2023-09-18T08:33:35;26.00;81.70
16347;DHT22;8283;48.504;13.734;2023-09-18T08:36:20;26.30;80.90
16347;DHT22;8283;48.504;13.734;2023-09-18T08:39:05;26.60;81.30
16347;DHT22;8283;48.504;13.734;2023-09-18T08:41:51;26.90;81.00
16347;DHT22;8283;48.504;13.734;2023-09-18T08:44:42;27.20;80.70
16347;DHT22;8283;48.504;13.734;2023-09-18T08:47:28;27.50;79.90
16347;DHT22;8283;48.504;13.734;2023-09-18T08:50:14;27.90;80.20
16347;DHT22;8283;48.504;13.734;2023-09-18T08:52:59;28.20;79.00
16347;DHT22;8283;48.504;13.734;2023-09-18T08:55:44;28.50;78.20
16347;DHT22;8283;48.504;13.734;2023-09-18T08:58:34;28.70;76.90
16347;DHT22;8283;48.504;13.734;2023-09-18T09:01:21;28.90;75.00
16347;DHT22;8283;48.504;13.734;2023-09-18T09:04:06;29.00;75.30
16347;DHT22;8283;48.504;13.734;2023-09-18T09:06:51;29.20;75.10
16347;DHT22;8283;48.504;13.734;2023-09-18T09:09:36;29.40;74.60
16347;DHT22;8283;48.504;13.734;2023-09-18T09:15:43;29.70;70.60
16347;DHT22;8283;48.504;13.734;2023-09-18T09:18:30;29.90;70.70
16347;DHT22;8283;48.504;13.734;2023-09-18T09:21:16;30.00;73.10
16347;DHT22;8283;48.504;13.734;2023-09-18T09:24:00;30.20;72.60
16347;DHT22;8283;48.504;13.734;2023-09-18T09:26:57;30.40;72.10
16347;DHT22;8283;48.504;13.734;2023-09-18T09:29:42;30.60;68.90
16347;DHT22;8283;48.504;13.734;2023-09-18T09:32:32;30.80;70.90
16347;DHT22;8283;48.504;13.734;2023-09-18T09:35:26;30.90;68.20
16347;DHT22;8283;48.504;13.734;2023-09-18T09:38:12;31.00;68.20
16347;DHT22;8283;48.504;13.734;2023-09-18T09:41:00;31.10;67.70
16347;DHT22;8283;48.504;13.734;2023-09-18T09:43:45;31.30;67.20
16347;DHT22;8283;48.504;13.734;2023-09-18T09:46:30;31.40;66.70
16347;DHT22;8283;48.504;13.734;2023-09-18T09:49:14;31.50;66.90
16347;DHT22;8283;48.504;13.734;2023-09-18T09:52:01;31.70;66.10
16347;DHT22;8283;48.504;13.734;2023-09-18T09:54:46;31.80;65.60
16347;DHT22;8283;48.504;13.734;2023-09-18T09:57:31;32.00;64.70
16347;DHT22;8283;48.504;13.734;2023-09-18T10:03:27;32.30;62.70
16347;DHT22;8283;48.504;13.734;2023-09-18T10:06:13;32.40;63.40
16347;DHT22;8283;48.504;13.734;2023-09-18T10:08:58;32.50;62.90
16347;DHT22;8283;48.504;13.734;2023-09-18T10:11:45;32.70;63.10
16347;DHT22;8283;48.504;13.734;2023-09-18T10:14:33;32.80;61.50
16347;DHT22;8283;48.504;13.734;2023-09-18T10:17:19;33.00;61.10
16347;DHT22;8283;48.504;13.734;2023-09-18T10:20:08;33.10;60.80
16347;DHT22;8283;48.504;13.734;2023-09-18T10:22:56;33.20;58.40
16347;DHT22;8283;48.504;13.734;2023-09-18T10:25:41;33.30;59.00
16347;DHT22;8283;48.504;13.734;2023-09-18T10:28:26;33.40;60.10
16347;DHT22;8283;48.504;13.734;2023-09-18T10:31:12;33.60;59.70
16347;DHT22;8283;48.504;13.734;2023-09-18T10:33:58;33.70;59.80
16347;DHT22;8283;48.504;13.734;2023-09-18T10:36:46;33.90;59.50
16347;DHT22;8283;48.504;13.734;2023-09-18T10:39:31;34.00;59.40
16347;DHT22;8283;48.504;13.734;2023-09-18T10:42:18;34.20;59.20
16347;DHT22;8283;48.504;13.734;2023-09-18T10:45:07;34.40;58.90
16347;DHT22;8283;48.504;13.734;2023-09-18T10:47:55;34.50;58.30
16347;DHT22;8283;48.504;13.734;2023-09-18T10:50:42;34.70;58.40
16347;DHT22;8283;48.504;13.734;2023-09-18T10:53:27;34.80;57.20
16347;DHT22;8283;48.504;13.734;2023-09-18T10:56:19;34.80;57.70
16347;DHT22;8283;48.504;13.734;2023-09-18T10:59:06;34.80;57.00
16347;DHT22;8283;48.504;13.734;2023-09-18T11:01:51;34.80;56.40
16347;DHT22;8283;48.504;13.734;2023-09-18T11:04:37;34.70;56.90
16347;DHT22;8283;48.504;13.734;2023-09-18T11:07:22;34.60;56.90
16347;DHT22;8283;48.504;13.734;2023-09-18T11:10:26;34.40;56.80
16347;DHT22;8283;48.504;13.734;2023-09-18T11:13:28;34.30;56.10
16347;DHT22;8283;48.504;13.734;2023-09-18T11:19:16;33.90;56.30
16347;DHT22;8283;48.504;13.734;2023-09-18T11:22:07;33.70;57.30
16347;DHT22;8283;48.504;13.734;2023-09-18T11:24:54;33.60;56.20
16347;DHT22;8283;48.504;13.734;2023-09-18T11:27:59;33.40;57.40
16347;DHT22;8283;48.504;13.734;2023-09-18T11:30:54;33.30;57.60
16347;DHT22;8283;48.504;13.734;2023-09-18T11:33:47;33.20;56.80
16347;DHT22;8283;48.504;13.734;2023-09-18T11:36:31;33.20;58.10
16347;DHT22;8283;48.504;13.734;2023-09-18T11:39:37;33.20;57.70
16347;DHT22;8283;48.504;13.734;2023-09-18T11:42:22;33.30;57.20
16347;DHT22;8283;48.504;13.734;2023-09-18T11:45:16;33.40;57.70
16347;DHT22;8283;48.504;13.734;2023-09-18T11:48:01;33.40;56.30
16347;DHT22;8283;48.504;13.734;2023-09-18T11:50:47;33.40;57.10
16347;DHT22;8283;48.504;13.734;2023-09-18T11:53:36;33.40;57.00
16347;DHT22;8283;48.504;13.734;2023-09-18T11:56:22;33.40;57.50
16347;DHT22;8283;48.504;13.734;2023-09-18T11:59:06;33.40;57.60
16347;DHT22;8283;48.504;13.734;2023-09-18T12:01:54;33.60;57.80
16347;DHT22;8283;48.504;13.734;2023-09-18T12:04:45;33.70;57.50
16347;DHT22;8283;48.504;13.734;2023-09-18T12:07:31;33.90;57.80
16347;DHT22;8283;48.504;13.734;2023-09-18T12:10:18;34.00;57.70
16347;DHT22;8283;48.504;13.734;2023-09-18T12:13:06;34.10;57.30
16347;DHT22;8283;48.504;13.734;2023-09-18T12:16:00;34.30;56.80
16347;DHT22;8283;48.504;13.734;2023-09-18T12:18:49;34.50;56.10
16347;DHT22;8283;48.504;13.734;2023-09-18T12:21:40;34.70;56.10
16347;DHT22;8283;48.504;13.734;2023-09-18T12:24:25;34.90;55.90
16347;DHT22;8283;48.504;13.734;2023-09-18T12:27:09;35.10;56.30
16347;DHT22;8283;48.504;13.734;2023-09-18T12:29:54;35.20;55.90
16347;DHT22;8283;48.504;13.734;2023-09-18T12:32:39;35.40;55.90
16347;DHT22;8283;48.504;13.734;2023-09-18T12:35:23;35.40;55.50
16347;DHT22;8283;48.504;13.734;2023-09-18T12:38:19;35.60;55.50
16347;DHT22;8283;48.504;13.734;2023-09-18T12:41:11;35.70;54.50
16347;DHT22;8283;48.504;13.734;2023-09-18T12:43:55;35.70;55.80
16347;DHT22;8283;48.504;13.734;2023-09-18T12:46:40;35.80;55.80
16347;DHT22;8283;48.504;13.734;2023-09-18T12:49:30;35.80;55.50
16347;DHT22;8283;48.504;13.734;2023-09-18T12:52:22;35.80;54.60
16347;DHT22;8283;48.504;13.734;2023-09-18T12:55:07;35.70;54.00
16347;DHT22;8283;48.504;13.734;2023-09-18T12:57:52;35.70;54.50
16347;DHT22;8283;48.504;13.734;2023-09-18T13:00:45;35.50;53.90
16347;DHT22;8283;48.504;13.734;2023-09-18T13:03:30;35.40;52.50
16347;DHT22;8283;48.504;13.734;2023-09-18T13:06:18;35.20;53.10
16347;DHT22;8283;48.504;13.734;2023-09-18T13:09:15;35.00;52.60
16347;DHT22;8283;48.504;13.734;2023-09-18T13:12:00;34.80;52.00
16347;DHT22;8283;48.504;13.734;2023-09-18T13:15:03;34.70;53.00
16347;DHT22;8283;48.504;13.734;2023-09-18T13:17:54;34.40;52.60
16347;DHT22;8283;48.504;13.734;2023-09-18T13:20:39;34.10;53.20
16347;DHT22;8283;48.504;13.734;2023-09-18T13:23:29;33.90;53.10
16347;DHT22;8283;48.504;13.734;2023-09-18T13:26:14;33.70;53.20
16347;DHT22;8283;48.504;13.734;2023-09-18T13:28:58;33.50;53.40
16347;DHT22;8283;48.504;13.734;2023-09-18T13:31:42;33.30;53.80
16347;DHT22;8283;48.504;13.734;2023-09-18T13:34:27;33.10;53.90
16347;DHT22;8283;48.504;13.734;2023-09-18T13:37:14;33.00;54.00
16347;DHT22;8283;48.504;13.734;2023-09-18T13:40:01;32.80;54.00
16347;DHT22;8283;48.504;13.734;2023-09-18T13:42:46;32.70;54.30
16347;DHT22;8283;48.504;13.734;2023-09-18T13:45:34;32.50;54.50
16347;DHT22;8283;48.504;13.734;2023-09-18T13:48:21;32.50;54.90
16347;DHT22;8283;48.504;13.734;2023-09-18T13:51:06;32.40;54.90
16347;DHT22;8283;48.504;13.734;2023-09-18T13:53:52;32.30;55.00
16347;DHT22;8283;48.504;13.734;2023-09-18T13:56:36;32.30;55.30
16347;DHT22;8283;48.504;13.734;2023-09-18T13:59:21;32.20;55.10
16347;DHT22;8283;48.504;13.734;2023-09-18T14:02:05;32.10;55.10
16347;DHT22;8283;48.504;13.734;2023-09-18T14:04:50;32.00;55.10
16347;DHT22;8283;48.504;13.734;2023-09-18T14:07:35;31.90;55.20
16347;DHT22;8283;48.504;13.734;2023-09-18T14:10:22;31.80;55.10
16347;DHT22;8283;48.504;13.734;2023-09-18T14:13:07;31.60;55.10
16347;DHT22;8283;48.504;13.734;2023-09-18T14:15:52;31.40;55.30
16347;DHT22;8283;48.504;13.734;2023-09-18T14:18:37;31.30;55.60
16347;DHT22;8283;48.504;13.734;2023-09-18T14:21:21;31.20;55.60
16347;DHT22;8283;48.504;13.734;2023-09-18T14:24:05;31.10;55.90
16347;DHT22;8283;48.504;13.734;2023-09-18T14:26:53;31.00;55.70
16347;DHT22;8283;48.504;13.734;2023-09-18T14:29:39;30.80;56.00
16347;DHT22;8283;48.504;13.734;2023-09-18T14:32:23;30.80;56.30
16347;DHT22;8283;48.504;13.734;2023-09-18T14:35:08;30.70;56.20
16347;DHT22;8283;48.504;13.734;2023-09-18T14:37:53;30.60;56.60
16347;DHT22;8283;48.504;13.734;2023-09-18T14:40:41;30.50;56.50
16347;DHT22;8283;48.504;13.734;2023-09-18T14:43:25;30.50;56.90
16347;DHT22;8283;48.504;13.734;2023-09-18T14:46:10;30.40;56.70
16347;DHT22;8283;48.504;13.734;2023-09-18T14:48:54;30.40;56.80
16347;DHT22;8283;48.504;13.734;2023-09-18T14:51:38;30.30;56.90
16347;DHT22;8283;48.504;13.734;2023-09-18T14:54:22;30.20;56.70
16347;DHT22;8283;48.504;13.734;2023-09-18T14:57:06;30.10;57.00
16347;DHT22;8283;48.504;13.734;2023-09-18T14:59:51;30.00;57.30
16347;DHT22;8283;48.504;13.734;2023-09-18T15:02:35;29.90;57.20
16347;DHT22;8283;48.504;13.734;2023-09-18T15:05:20;29.90;57.10
16347;DHT22;8283;48.504;13.734;2023-09-18T15:08:05;29.70;57.20
16347;DHT22;8283;48.504;13.734;2023-09-18T15:10:50;29.60;57.00
16347;DHT22;8283;48.504;13.734;2023-09-18T15:13:35;29.50;57.30
16347;DHT22;8283;48.504;13.734;2023-09-18T15:16:19;29.40;57.50
16347;DHT22;8283;48.504;13.734;2023-09-18T15:19:04;29.30;57.70
16347;DHT22;8283;48.504;13.734;2023-09-18T15:21:50;29.20;57.80
16347;DHT22;8283;48.504;13.734;2023-09-18T15:24:36;29.20;58.00
16347;DHT22;8283;48.504;13.734;2023-09-18T15:27:21;29.10;58.00
16347;DHT22;8283;48.504;13.734;2023-09-18T15:30:06;29.10;58.10
16347;DHT22;8283;48.504;13.734;2023-09-18T15:32:55;29.00;58.10
16347;DHT22;8283;48.504;13.734;2023-09-18T15:35:40;29.00;58.20
16347;DHT22;8283;48.504;13.734;2023-09-18T15:38:25;28.90;58.00
16347;DHT22;8283;48.504;13.734;2023-09-18T15:41:10;28.80;57.80
16347;DHT22;8283;48.504;13.734;2023-09-18T15:43:55;28.60;57.80
16347;DHT22;8283;48.504;13.734;2023-09-18T15:46:39;28.50;58.00
16347;DHT22;8283;48.504;13.734;2023-09-18T15:49:23;28.30;58.00
16347;DHT22;8283;48.504;13.734;2023-09-18T15:52:09;28.20;58.80
16347;DHT22;8283;48.504;13.734;2023-09-18T15:54:54;28.10;58.40
16347;DHT22;8283;48.504;13.734;2023-09-18T15:57:38;28.00;58.40
16347;DHT22;8283;48.504;13.734;2023-09-18T16:00:23;27.90;58.50
16347;DHT22;8283;48.504;13.734;2023-09-18T16:03:07;27.80;58.60
16347;DHT22;8283;48.504;13.734;2023-09-18T16:05:52;27.70;58.50
16347;DHT22;8283;48.504;13.734;2023-09-18T16:08:37;27.60;58.60
16347;DHT22;8283;48.504;13.734;2023-09-18T16:11:22;27.60;58.80
16347;DHT22;8283;48.504;13.734;2023-09-18T16:14:06;27.40;58.70
16347;DHT22;8283;48.504;13.734;2023-09-18T16:16:51;27.30;58.70
16347;DHT22;8283;48.504;13.734;2023-09-18T16:19:36;27.20;58.80
16347;DHT22;8283;48.504;13.734;2023-09-18T16:22:20;27.10;58.70
16347;DHT22;8283;48.504;13.734;2023-09-18T16:25:05;27.00;58.70
16347;DHT22;8283;48.504;13.734;2023-09-18T16:27:50;26.80;58.70
16347;DHT22;8283;48.504;13.734;2023-09-18T16:30:35;26.70;58.70
16347;DHT22;8283;48.504;13.734;2023-09-18T16:33:19;26.60;58.80
16347;DHT22;8283;48.504;13.734;2023-09-18T16:36:04;26.50;58.90
16347;DHT22;8283;48.504;13.734;2023-09-18T16:38:48;26.40;58.90
16347;DHT22;8283;48.504;13.734;2023-09-18T16:41:32;26.30;58.80
16347;DHT22;8283;48.504;13.734;2023-09-18T16:44:17;26.20;58.90
16347;DHT22;8283;48.504;13.734;2023-09-18T16:47:01;26.10;58.90
16347;DHT22;8283;48.504;13.734;2023-09-18T16:49:45;26.00;58.90
16347;DHT22;8283;48.504;13.734;2023-09-18T16:52:30;26.00;59.00
16347;DHT22;8283;48.504;13.734;2023-09-18T16:55:14;25.90;59.00
16347;DHT22;8283;48.504;13.734;2023-09-18T16:57:59;25.80;59.10
16347;DHT22;8283;48.504;13.734;2023-09-18T17:00:43;25.70;59.10
16347;DHT22;8283;48.504;13.734;2023-09-18T17:03:29;25.60;59.00
16347;DHT22;8283;48.504;13.734;2023-09-18T17:06:14;25.50;59.10
16347;DHT22;8283;48.504;13.734;2023-09-18T17:09:01;25.50;59.20
16347;DHT22;8283;48.504;13.734;2023-09-18T17:11:48;25.40;59.40
16347;DHT22;8283;48.504;13.734;2023-09-18T17:14:32;25.30;59.50
16347;DHT22;8283;48.504;13.734;2023-09-18T17:17:16;25.30;59.50
16347;DHT22;8283;48.504;13.734;2023-09-18T17:20:01;25.20;59.60
16347;DHT22;8283;48.504;13.734;2023-09-18T17:22:47;25.20;59.60
16347;DHT22;8283;48.504;13.734;2023-09-18T17:25:31;25.10;59.70
16347;DHT22;8283;48.504;13.734;2023-09-18T17:28:17;25.10;59.80
16347;DHT22;8283;48.504;13.734;2023-09-18T17:31:01;25.10;59.90
16347;DHT22;8283;48.504;13.734;2023-09-18T17:33:47;25.00;59.90
16347;DHT22;8283;48.504;13.734;2023-09-18T17:36:32;24.90;59.80